Dallas, Texas
Traffic Map
Current Weather Conditions
Dallas, Texas
Clear
Clear
33°
Feels Like: 33°
Wind Chill: 33° Ceiling: Unl
Heat Index: 33° Visibility: 10mi
Dew Point: 17° Wind: 8mph
Humidity: 38% Direction: 120° (ESE)
Pressure: 30.02in Gusts: 0mph
Raw Report DataKDAL 300353Z 12007KT 10SM CLR 33/17 A3002 RMK AO2 SLP158 T03280167
Traffic Incident Summary
Active as of:
Severity:
Category:
InformationThere was an issue retrieving the traffic information for this location. Please try a different location or try again shortly.
Advertisements
Track Severe Weather on mobile